Palatine — 9HA2152 — position and weather

sailwx.info

Track history (hours):
 
Tides and Currents Weather Stations Pressure Air Temp Water Temp Dewpoint Dewpoint Depression Visibility Wind Speed Wind Dir Waves Ship Positions

Palatine

Last reported at 2017-Sep-26 19:59 UTC. Time now 2017-Sep-26 22:00 UTC.
Position N 51°34' E 002°21'.

Length 194 m; draft 6.5 m.

Type: Ship. MMSI: 248064000.

Date/timePositionNaut miles runAvg speedWind from/ knotsBaromVisibWave heightAir tempDewpointWater temp
2017-Sep-26 19:59N 51°34' E 002°21'715.3
2017-Sep-26 19:30N 51°28' E 002°14'815.7
2017-Sep-26 19:00N 51°22' E 002°08'816.0
2017-Sep-26 18:30N 51°14' E 002°03'816.3
2017-Sep-26 18:00N 51°09' E 001°53'815.7
2017-Sep-26 17:30N 51°04' E 001°43'815.6
2017-Sep-26 17:00N 50°59' E 001°34'916.8
2017-Sep-26 16:30N 50°52' E 001°27'816.8
2017-Sep-26 16:00N 50°44' E 001°22'917.8
2017-Sep-26 15:30N 50°38' E 001°11'918.0
2017-Sep-26 15:00N 50°32' E 001°00'1017.7
2017-Sep-26 14:26N 50°29' E 000°45'1518.0
2017-Sep-26 13:36N 50°25' E 000°22'218.1
2017-Sep-26 13:30N 50°24' E 000°20'918.4
2017-Sep-26 13:00N 50°22' E 000°06'918.8
2017-Sep-26 12:31N 50°20' W 000°08'1019.2
2017-Sep-26 11:59N 50°17' W 000°23'919.5
2017-Sep-26 11:30N 50°15' W 000°38'7718.7
2017-Sep-26 07:22N 49°54' W 002°34'616.9
2017-Sep-26 07:01N 49°53' W 002°43'816.8
2017-Sep-26 06:30N 49°49' W 002°55'816.7
2017-Sep-26 06:00N 49°46' W 003°06'816.7
2017-Sep-26 05:30N 49°42' W 003°18'816.7
2017-Sep-26 05:00N 49°39' W 003°30'816.6
2017-Sep-26 04:31N 49°35' W 003°41'816.7
2017-Sep-26 04:01N 49°30' W 003°52'1016.5
2017-Sep-26 03:25N 49°25' W 004°04'716.4
2017-Sep-26 03:01N 49°21' W 004°13'916.4
2017-Sep-26 02:28N 49°16' W 004°24'716.2
2017-Sep-26 02:01N 49°12' W 004°34'816.2
2017-Sep-26 01:30N 49°08' W 004°44'815.9
2017-Sep-26 01:00N 49°03' W 004°54'816.0
2017-Sep-26 00:31N 48°60' W 005°05'816.1
2017-Sep-26 00:00N 48°56' W 005°16'816.0
2017-Sep-25 23:31N 48°51' W 005°26'815.9
2017-Sep-25 23:01N 48°46' W 005°35'816.0
2017-Sep-25 22:31N 48°39' W 005°41'1714.6
2017-Sep-25 21:19N 48°22' W 005°45'914.9
2017-Sep-25 20:41N 48°13' W 005°41'315.7
2017-Sep-25 20:30N 48°10' W 005°39'2115.7
2017-Sep-25 19:10N 47°50' W 005°31'715.5
2017-Sep-25 18:44N 47°44' W 005°28'416.2
2017-Sep-25 18:27N 47°39' W 005°26'715.8
2017-Sep-25 18:01N 47°32' W 005°24'816.0
2017-Sep-25 17:30N 47°24' W 005°22'816.3
2017-Sep-25 17:00N 47°17' W 005°20'916.6
2017-Sep-25 16:30N 47°08' W 005°17'815.8
2017-Sep-25 16:00N 47°01' W 005°14'915.7
2017-Sep-25 15:28N 46°53' W 005°10'716.0
2017-Sep-25 15:00N 46°46' W 005°07'19816.0
2017-Sep-25 02:36N 43°36' W 003°47'8 1.2
2017-Sep-24 19:54N 43°28' W 003°46'410.9
2017-Sep-24 19:30N 43°32' W 003°47'817.1
2017-Sep-24 19:00N 43°34' W 003°58'917.1
2017-Sep-24 18:30N 43°37' W 004°09'817.1
2017-Sep-24 18:00N 43°38' W 004°21'917.4
2017-Sep-24 17:30N 43°39' W 004°33'917.3
2017-Sep-24 17:00N 43°40' W 004°45'817.2
2017-Sep-24 16:30N 43°41' W 004°57'917.4
2017-Sep-24 16:00N 43°42' W 005°09'1017.2
2017-Sep-24 15:27N 43°43' W 005°22'817.3
2017-Sep-24 15:00N 43°43' W 005°32'917.3
2017-Sep-24 14:30N 43°44' W 005°44'917.2
2017-Sep-24 13:59N 43°45' W 005°57'2017.3
2017-Sep-24 12:49N 43°47' W 006°24'617.5
2017-Sep-24 12:30N 43°47' W 006°32'1917.4
2017-Sep-24 11:23N 43°49' W 006°59'717.3
2017-Sep-24 11:00N 43°50' W 007°08'817.1
2017-Sep-24 10:30N 43°50' W 007°20'816.9
2017-Sep-24 10:00N 43°51' W 007°31'816.7
2017-Sep-24 09:30N 43°52' W 007°43'916.8
2017-Sep-24 08:59N 43°53' W 007°55'16212.2
2017-Sep-23 19:46N 41°16' W 008°48'  
2017-Sep-21 14:43N 49°26' W 004°22'315.9
2017-Sep-21 14:30N 49°28' W 004°17'816.3
2017-Sep-21 14:00N 49°32' W 004°07'816.9
2017-Sep-21 13:31N 49°37' W 003°55'917.4
2017-Sep-21 13:00N 49°41' W 003°43'917.6
2017-Sep-21 12:30N 49°45' W 003°32'917.4
2017-Sep-21 12:00N 49°50' W 003°20'817.0
2017-Sep-21 11:30N 49°54' W 003°09'816.3
2017-Sep-21 11:00N 49°58' W 002°58'815.6
2017-Sep-21 10:30N 50°00' W 002°46'9014.6
2017-Sep-21 04:21N 50°24' W 000°31'618.6
2017-Sep-21 04:00N 50°25' W 000°21'918.3
2017-Sep-21 03:30N 50°28' W 000°07'918.1
2017-Sep-21 03:00N 50°31' E 000°06'917.8
2017-Sep-21 02:30N 50°33' E 000°20'917.4
2017-Sep-21 02:00N 50°35' E 000°33'816.8
2017-Sep-21 01:30N 50°40' E 000°44'816.1
2017-Sep-21 01:00N 50°44' E 000°54'815.2
2017-Sep-21 00:30N 50°49' E 001°04'814.6
2017-Sep-20 23:58N 50°53' E 001°14'613.9
2017-Sep-20 23:30N 50°58' E 001°22'714.1
2017-Sep-20 23:00N 51°03' E 001°29'815.2
2017-Sep-20 22:30N 51°08' E 001°38'816.1
2017-Sep-20 22:00N 51°14' E 001°47'917.8
2017-Sep-20 21:30N 51°22' E 001°53'918.2
2017-Sep-20 21:00N 51°30' E 002°01'918.1
2017-Sep-20 20:30N 51°36' E 002°12'5715.8
2017-Sep-20 16:53N 52°04' E 003°32'615.6
2017-Sep-20 16:29N 52°04' E 003°42'613.5
2017-Sep-20 16:01N 52°03' E 003°53'5 9.7
2017-Sep-20 15:30N 52°01' E 003°60'612.8
2017-Sep-20 15:00N 51°57' E 004°09'5 4.8
2017-Sep-20 14:00N 51°54' E 004°14'0 0.0
2017-Sep-20 13:29N 51°54' E 004°14'0 0.0
2017-Sep-20 12:59N 51°54' E 004°14'0 0.0
2017-Sep-20 12:29N 51°54' E 004°14'0 0.0
2017-Sep-20 11:59N 51°54' E 004°14'0 0.0
2017-Sep-20 11:29N 51°54' E 004°14'0 0.0
2017-Sep-20 10:58N 51°54' E 004°14'0 0.0
2017-Sep-20 10:28N 51°54' E 004°14'0 0.0
2017-Sep-20 09:58N 51°54' E 004°14'0 0.0
2017-Sep-20 09:22N 51°54' E 004°14'0 0.0
2017-Sep-20 08:51N 51°54' E 004°14'0 0.0
2017-Sep-20 08:27N 51°54' E 004°14'0 0.0
2017-Sep-20 07:57N 51°54' E 004°14'0 0.0
2017-Sep-20 07:27N 51°54' E 004°14'0 0.0
2017-Sep-20 06:57N 51°54' E 004°14'0 0.0
2017-Sep-20 06:20N 51°54' E 004°14'0 0.0
2017-Sep-20 05:56N 51°54' E 004°14'0 0.0
2017-Sep-20 05:26N 51°54' E 004°14'0 0.0
2017-Sep-20 04:56N 51°54' E 004°14'0 0.0
2017-Sep-20 04:25N 51°54' E 004°14'0 0.0
2017-Sep-20 03:55N 51°54' E 004°14'0 0.0
2017-Sep-20 03:25N 51°54' E 004°14'0 0.0
2017-Sep-20 02:55N 51°54' E 004°14'0 0.2
2017-Sep-20 02:30N 51°54' E 004°14'2 4.8
2017-Sep-20 02:00N 51°56' E 004°12'4 7.2
2017-Sep-20 01:30N 51°58' E 004°07'714.5
2017-Sep-20 01:00N 52°00' E 003°56'815.1
2017-Sep-20 00:30N 51°59' E 003°44'1017.3
2017-Sep-19 23:57N 51°56' E 003°29'4716.8
2017-Sep-19 21:10N 51°35' E 002°22'316.3
2017-Sep-19 21:00N 51°33' E 002°19'815.8
2017-Sep-19 20:31N 51°26' E 002°12'815.9
2017-Sep-19 20:00N 51°19' E 002°08'715.0
2017-Sep-19 19:30N 51°13' E 002°02'815.4
2017-Sep-19 19:00N 51°08' E 001°52'815.1
2017-Sep-19 18:30N 51°05' E 001°41'814.9
2017-Sep-19 18:00N 50°59' E 001°34'3315.9
2017-Sep-19 15:57N 50°33' E 001°02'716.7
2017-Sep-19 15:30N 50°30' E 000°51'816.8
2017-Sep-19 15:00N 50°27' E 000°39'1016.8
2017-Sep-19 14:25N 50°25' E 000°24'716.6
2017-Sep-19 14:00N 50°23' E 000°13'816.6
2017-Sep-19 13:30N 50°21' E 000°01'916.4
2017-Sep-19 12:57N 50°18' W 000°13'2516.3
2017-Sep-19 11:24N 50°11' W 000°50'717.0
2017-Sep-19 11:01N 50°09' W 001°00'917.5
2017-Sep-19 10:30N 50°06' W 001°14'918.1
2017-Sep-19 10:00N 50°04' W 001°27'918.9
2017-Sep-19 09:30N 50°01' W 001°41'1019.7
2017-Sep-19 09:01N 49°59' W 001°56'1020.0
2017-Sep-19 08:29N 49°58' W 002°12'1620.0
2017-Sep-19 07:41N 49°53' W 002°36'419.9
2017-Sep-19 07:29N 49°52' W 002°42'919.8
2017-Sep-19 07:00N 49°49' W 002°56'1019.4
2017-Sep-19 06:30N 49°45' W 003°09'1019.3
2017-Sep-19 06:00N 49°39' W 003°22'1019.2
2017-Sep-19 05:30N 49°34' W 003°35'1419.2
2017-Sep-19 04:46N 49°27' W 003°53'519.4
2017-Sep-19 04:30N 49°25' W 003°60'5619.3
2017-Sep-19 01:35N 48°57' W 005°15'  
Track history (hours):
 
Tides and Currents Weather Stations Pressure Air Temp Water Temp Dewpoint Dewpoint Depression Visibility Wind Speed Wind Dir Waves Ship Positions

Palatine

Last reported at 2017-Sep-26 19:59 UTC. Time now 2017-Sep-26 22:00 UTC.
Position N 51°34' E 002°21'.

Length 194 m; draft 6.5 m.

Type: Ship. MMSI: 248064000.

Date/timePositionNaut miles runAvg speedWind from/ knotsBaromVisibWave heightAir tempDewpointWater temp
2017-Sep-26 19:59N 51°34' E 002°21'715.3
2017-Sep-26 19:30N 51°28' E 002°14'815.7
2017-Sep-26 19:00N 51°22' E 002°08'816.0
2017-Sep-26 18:30N 51°14' E 002°03'816.3
2017-Sep-26 18:00N 51°09' E 001°53'815.7
2017-Sep-26 17:30N 51°04' E 001°43'815.6
2017-Sep-26 17:00N 50°59' E 001°34'916.8
2017-Sep-26 16:30N 50°52' E 001°27'816.8
2017-Sep-26 16:00N 50°44' E 001°22'917.8
2017-Sep-26 15:30N 50°38' E 001°11'918.0
2017-Sep-26 15:00N 50°32' E 001°00'1017.7
2017-Sep-26 14:26N 50°29' E 000°45'1518.0
2017-Sep-26 13:36N 50°25' E 000°22'218.1
2017-Sep-26 13:30N 50°24' E 000°20'918.4
2017-Sep-26 13:00N 50°22' E 000°06'918.8
2017-Sep-26 12:31N 50°20' W 000°08'1019.2
2017-Sep-26 11:59N 50°17' W 000°23'919.5
2017-Sep-26 11:30N 50°15' W 000°38'7718.7
2017-Sep-26 07:22N 49°54' W 002°34'616.9
2017-Sep-26 07:01N 49°53' W 002°43'816.8
2017-Sep-26 06:30N 49°49' W 002°55'816.7
2017-Sep-26 06:00N 49°46' W 003°06'816.7
2017-Sep-26 05:30N 49°42' W 003°18'816.7
2017-Sep-26 05:00N 49°39' W 003°30'816.6
2017-Sep-26 04:31N 49°35' W 003°41'816.7
2017-Sep-26 04:01N 49°30' W 003°52'1016.5
2017-Sep-26 03:25N 49°25' W 004°04'716.4
2017-Sep-26 03:01N 49°21' W 004°13'916.4
2017-Sep-26 02:28N 49°16' W 004°24'716.2
2017-Sep-26 02:01N 49°12' W 004°34'816.2
2017-Sep-26 01:30N 49°08' W 004°44'815.9
2017-Sep-26 01:00N 49°03' W 004°54'816.0
2017-Sep-26 00:31N 48°60' W 005°05'816.1
2017-Sep-26 00:00N 48°56' W 005°16'816.0
2017-Sep-25 23:31N 48°51' W 005°26'815.9
2017-Sep-25 23:01N 48°46' W 005°35'816.0
2017-Sep-25 22:31N 48°39' W 005°41'1714.6
2017-Sep-25 21:19N 48°22' W 005°45'914.9
2017-Sep-25 20:41N 48°13' W 005°41'315.7
2017-Sep-25 20:30N 48°10' W 005°39'2115.7
2017-Sep-25 19:10N 47°50' W 005°31'715.5
2017-Sep-25 18:44N 47°44' W 005°28'416.2
2017-Sep-25 18:27N 47°39' W 005°26'715.8
2017-Sep-25 18:01N 47°32' W 005°24'816.0
2017-Sep-25 17:30N 47°24' W 005°22'816.3
2017-Sep-25 17:00N 47°17' W 005°20'916.6
2017-Sep-25 16:30N 47°08' W 005°17'815.8
2017-Sep-25 16:00N 47°01' W 005°14'915.7
2017-Sep-25 15:28N 46°53' W 005°10'716.0
2017-Sep-25 15:00N 46°46' W 005°07'19816.0
2017-Sep-25 02:36N 43°36' W 003°47'8 1.2
2017-Sep-24 19:54N 43°28' W 003°46'410.9
2017-Sep-24 19:30N 43°32' W 003°47'817.1
2017-Sep-24 19:00N 43°34' W 003°58'917.1
2017-Sep-24 18:30N 43°37' W 004°09'817.1
2017-Sep-24 18:00N 43°38' W 004°21'917.4
2017-Sep-24 17:30N 43°39' W 004°33'917.3
2017-Sep-24 17:00N 43°40' W 004°45'817.2
2017-Sep-24 16:30N 43°41' W 004°57'917.4
2017-Sep-24 16:00N 43°42' W 005°09'1017.2
2017-Sep-24 15:27N 43°43' W 005°22'817.3
2017-Sep-24 15:00N 43°43' W 005°32'917.3
2017-Sep-24 14:30N 43°44' W 005°44'917.2
2017-Sep-24 13:59N 43°45' W 005°57'2017.3
2017-Sep-24 12:49N 43°47' W 006°24'617.5
2017-Sep-24 12:30N 43°47' W 006°32'1917.4
2017-Sep-24 11:23N 43°49' W 006°59'717.3
2017-Sep-24 11:00N 43°50' W 007°08'817.1
2017-Sep-24 10:30N 43°50' W 007°20'816.9
2017-Sep-24 10:00N 43°51' W 007°31'816.7
2017-Sep-24 09:30N 43°52' W 007°43'916.8
2017-Sep-24 08:59N 43°53' W 007°55'16212.2
2017-Sep-23 19:46N 41°16' W 008°48'  
2017-Sep-21 14:43N 49°26' W 004°22'315.9
2017-Sep-21 14:30N 49°28' W 004°17'816.3
2017-Sep-21 14:00N 49°32' W 004°07'816.9
2017-Sep-21 13:31N 49°37' W 003°55'917.4
2017-Sep-21 13:00N 49°41' W 003°43'917.6
2017-Sep-21 12:30N 49°45' W 003°32'917.4
2017-Sep-21 12:00N 49°50' W 003°20'817.0
2017-Sep-21 11:30N 49°54' W 003°09'816.3
2017-Sep-21 11:00N 49°58' W 002°58'815.6
2017-Sep-21 10:30N 50°00' W 002°46'9014.6
2017-Sep-21 04:21N 50°24' W 000°31'618.6
2017-Sep-21 04:00N 50°25' W 000°21'918.3
2017-Sep-21 03:30N 50°28' W 000°07'918.1
2017-Sep-21 03:00N 50°31' E 000°06'917.8
2017-Sep-21 02:30N 50°33' E 000°20'917.4
2017-Sep-21 02:00N 50°35' E 000°33'816.8
2017-Sep-21 01:30N 50°40' E 000°44'816.1
2017-Sep-21 01:00N 50°44' E 000°54'815.2
2017-Sep-21 00:30N 50°49' E 001°04'814.6
2017-Sep-20 23:58N 50°53' E 001°14'613.9
2017-Sep-20 23:30N 50°58' E 001°22'714.1
2017-Sep-20 23:00N 51°03' E 001°29'815.2
2017-Sep-20 22:30N 51°08' E 001°38'816.1
2017-Sep-20 22:00N 51°14' E 001°47'917.8
2017-Sep-20 21:30N 51°22' E 001°53'918.2
2017-Sep-20 21:00N 51°30' E 002°01'918.1
2017-Sep-20 20:30N 51°36' E 002°12'5715.8
2017-Sep-20 16:53N 52°04' E 003°32'615.6
2017-Sep-20 16:29N 52°04' E 003°42'613.5
2017-Sep-20 16:01N 52°03' E 003°53'5 9.7
2017-Sep-20 15:30N 52°01' E 003°60'612.8
2017-Sep-20 15:00N 51°57' E 004°09'5 4.8
2017-Sep-20 14:00N 51°54' E 004°14'0 0.0
2017-Sep-20 13:29N 51°54' E 004°14'0 0.0
2017-Sep-20 12:59N 51°54' E 004°14'0 0.0
2017-Sep-20 12:29N 51°54' E 004°14'0 0.0
2017-Sep-20 11:59N 51°54' E 004°14'0 0.0
2017-Sep-20 11:29N 51°54' E 004°14'0 0.0
2017-Sep-20 10:58N 51°54' E 004°14'0 0.0
2017-Sep-20 10:28N 51°54' E 004°14'0 0.0
2017-Sep-20 09:58N 51°54' E 004°14'0 0.0
2017-Sep-20 09:22N 51°54' E 004°14'0 0.0
2017-Sep-20 08:51N 51°54' E 004°14'0 0.0
2017-Sep-20 08:27N 51°54' E 004°14'0 0.0
2017-Sep-20 07:57N 51°54' E 004°14'0 0.0
2017-Sep-20 07:27N 51°54' E 004°14'0 0.0
2017-Sep-20 06:57N 51°54' E 004°14'0 0.0
2017-Sep-20 06:20N 51°54' E 004°14'0 0.0
2017-Sep-20 05:56N 51°54' E 004°14'0 0.0
2017-Sep-20 05:26N 51°54' E 004°14'0 0.0
2017-Sep-20 04:56N 51°54' E 004°14'0 0.0
2017-Sep-20 04:25N 51°54' E 004°14'0 0.0
2017-Sep-20 03:55N 51°54' E 004°14'0 0.0
2017-Sep-20 03:25N 51°54' E 004°14'0 0.0
2017-Sep-20 02:55N 51°54' E 004°14'0 0.2
2017-Sep-20 02:30N 51°54' E 004°14'2 4.8
2017-Sep-20 02:00N 51°56' E 004°12'4 7.2
2017-Sep-20 01:30N 51°58' E 004°07'714.5
2017-Sep-20 01:00N 52°00' E 003°56'815.1
2017-Sep-20 00:30N 51°59' E 003°44'1017.3
2017-Sep-19 23:57N 51°56' E 003°29'4716.8
2017-Sep-19 21:10N 51°35' E 002°22'316.3
2017-Sep-19 21:00N 51°33' E 002°19'815.8
2017-Sep-19 20:31N 51°26' E 002°12'815.9
2017-Sep-19 20:00N 51°19' E 002°08'715.0
2017-Sep-19 19:30N 51°13' E 002°02'815.4
2017-Sep-19 19:00N 51°08' E 001°52'815.1
2017-Sep-19 18:30N 51°05' E 001°41'814.9
2017-Sep-19 18:00N 50°59' E 001°34'3315.9
2017-Sep-19 15:57N 50°33' E 001°02'716.7
2017-Sep-19 15:30N 50°30' E 000°51'816.8
2017-Sep-19 15:00N 50°27' E 000°39'1016.8
2017-Sep-19 14:25N 50°25' E 000°24'716.6
2017-Sep-19 14:00N 50°23' E 000°13'816.6
2017-Sep-19 13:30N 50°21' E 000°01'916.4
2017-Sep-19 12:57N 50°18' W 000°13'2516.3
2017-Sep-19 11:24N 50°11' W 000°50'717.0
2017-Sep-19 11:01N 50°09' W 001°00'917.5
2017-Sep-19 10:30N 50°06' W 001°14'918.1
2017-Sep-19 10:00N 50°04' W 001°27'918.9
2017-Sep-19 09:30N 50°01' W 001°41'1019.7
2017-Sep-19 09:01N 49°59' W 001°56'1020.0
2017-Sep-19 08:29N 49°58' W 002°12'1620.0
2017-Sep-19 07:41N 49°53' W 002°36'419.9
2017-Sep-19 07:29N 49°52' W 002°42'919.8
2017-Sep-19 07:00N 49°49' W 002°56'1019.4
2017-Sep-19 06:30N 49°45' W 003°09'1019.3
2017-Sep-19 06:00N 49°39' W 003°22'1019.2
2017-Sep-19 05:30N 49°34' W 003°35'1419.2
2017-Sep-19 04:46N 49°27' W 003°53'519.4
2017-Sep-19 04:30N 49°25' W 003°60'5619.3
2017-Sep-19 01:35N 48°57' W 005°15'  

Dump ship's entire track history